sensor_id;sensor_type;location;lat;lon;timestamp;pressure;altitude;pressure_sealevel;temperature;humidity
65897;BME280;52677;50.898;10.854;2023-06-10T00:02:00;98451.88;;;14.66;93.89
65897;BME280;52677;50.898;10.854;2023-06-10T00:04:00;98452.66;;;14.63;93.77
65897;BME280;52677;50.898;10.854;2023-06-10T00:06:00;98458.69;;;14.54;93.96
65897;BME280;52677;50.898;10.854;2023-06-10T00:08:01;98461.09;;;14.52;94.23
65897;BME280;52677;50.898;10.854;2023-06-10T00:10:08;98452.34;;;14.47;94.42
65897;BME280;52677;50.898;10.854;2023-06-10T00:12:11;98449.19;;;14.41;94.70
65897;BME280;52677;50.898;10.854;2023-06-10T00:14:11;98458.31;;;14.38;95.56
65897;BME280;52677;50.898;10.854;2023-06-10T00:16:12;98453.53;;;14.39;94.62
65897;BME280;52677;50.898;10.854;2023-06-10T00:18:12;98455.16;;;14.36;95.97
65897;BME280;52677;50.898;10.854;2023-06-10T00:20:13;98448.03;;;14.31;96.18
65897;BME280;52677;50.898;10.854;2023-06-10T00:22:13;98446.03;;;14.28;95.91
65897;BME280;52677;50.898;10.854;2023-06-10T00:24:14;98448.84;;;14.25;96.65
65897;BME280;52677;50.898;10.854;2023-06-10T00:26:15;98458.00;;;14.18;97.42
65897;BME280;52677;50.898;10.854;2023-06-10T00:28:15;98452.47;;;14.11;98.43
65897;BME280;52677;50.898;10.854;2023-06-10T00:30:16;98456.06;;;14.08;98.08
65897;BME280;52677;50.898;10.854;2023-06-10T00:32:16;98458.06;;;14.00;99.04
65897;BME280;52677;50.898;10.854;2023-06-10T00:34:16;98456.88;;;13.94;100.00
65897;BME280;52677;50.898;10.854;2023-06-10T00:36:17;98453.31;;;13.87;100.00
65897;BME280;52677;50.898;10.854;2023-06-10T00:38:17;98457.31;;;13.82;100.00
65897;BME280;52677;50.898;10.854;2023-06-10T00:40:18;98454.53;;;13.78;100.00
65897;BME280;52677;50.898;10.854;2023-06-10T00:42:18;98464.44;;;13.80;99.97
65897;BME280;52677;50.898;10.854;2023-06-10T00:44:19;98456.91;;;13.76;99.69
65897;BME280;52677;50.898;10.854;2023-06-10T00:46:20;98454.16;;;13.69;100.00
65897;BME280;52677;50.898;10.854;2023-06-10T00:48:21;98467.66;;;13.57;100.00
65897;BME280;52677;50.898;10.854;2023-06-10T00:50:21;98470.06;;;13.58;100.00
65897;BME280;52677;50.898;10.854;2023-06-10T00:52:25;98473.22;;;13.60;100.00
65897;BME280;52677;50.898;10.854;2023-06-10T00:54:27;98473.19;;;13.64;100.00
65897;BME280;52677;50.898;10.854;2023-06-10T00:56:28;98477.59;;;13.61;100.00
65897;BME280;52677;50.898;10.854;2023-06-10T00:58:28;98476.00;;;13.53;100.00
65897;BME280;52677;50.898;10.854;2023-06-10T01:00:29;98468.06;;;13.41;100.00
65897;BME280;52677;50.898;10.854;2023-06-10T01:02:30;98484.31;;;13.39;100.00
65897;BME280;52677;50.898;10.854;2023-06-10T01:04:30;98483.16;;;13.36;100.00
65897;BME280;52677;50.898;10.854;2023-06-10T01:10:56;98493.81;;;13.16;100.00
65897;BME280;52677;50.898;10.854;2023-06-10T01:13:11;98486.28;;;13.10;100.00
65897;BME280;52677;50.898;10.854;2023-06-10T01:15:15;98483.88;;;13.05;100.00
65897;BME280;52677;50.898;10.854;2023-06-10T01:17:16;98491.38;;;12.97;100.00
65897;BME280;52677;50.898;10.854;2023-06-10T01:19:18;98484.25;;;12.92;100.00
65897;BME280;52677;50.898;10.854;2023-06-10T01:21:22;98487.00;;;12.89;100.00
65897;BME280;52677;50.898;10.854;2023-06-10T01:23:27;98490.19;;;12.87;100.00
65897;BME280;52677;50.898;10.854;2023-06-10T01:25:28;98489.75;;;12.78;100.00
65897;BME280;52677;50.898;10.854;2023-06-10T01:27:30;98488.94;;;12.74;100.00
65897;BME280;52677;50.898;10.854;2023-06-10T01:29:37;98481.41;;;12.71;100.00
65897;BME280;52677;50.898;10.854;2023-06-10T01:31:48;98489.34;;;12.73;100.00
65897;BME280;52677;50.898;10.854;2023-06-10T01:33:52;98485.38;;;12.70;100.00
65897;BME280;52677;50.898;10.854;2023-06-10T01:35:53;98486.97;;;12.71;100.00
65897;BME280;52677;50.898;10.854;2023-06-10T01:37:56;98490.94;;;12.70;100.00
65897;BME280;52677;50.898;10.854;2023-06-10T01:40:00;98479.41;;;12.64;100.00
65897;BME280;52677;50.898;10.854;2023-06-10T01:42:03;98487.72;;;12.61;100.00
65897;BME280;52677;50.898;10.854;2023-06-10T01:44:04;98483.78;;;12.62;100.00
65897;BME280;52677;50.898;10.854;2023-06-10T01:46:05;98493.69;;;12.63;100.00
65897;BME280;52677;50.898;10.854;2023-06-10T01:48:06;98484.97;;;12.64;100.00
65897;BME280;52677;50.898;10.854;2023-06-10T01:50:06;98480.63;;;12.67;100.00
65897;BME280;52677;50.898;10.854;2023-06-10T01:52:07;98496.09;;;12.68;100.00
65897;BME280;52677;50.898;10.854;2023-06-10T01:54:07;98498.47;;;12.66;100.00
65897;BME280;52677;50.898;10.854;2023-06-10T01:56:08;98499.19;;;12.56;100.00
65897;BME280;52677;50.898;10.854;2023-06-10T01:58:08;98500.78;;;12.53;100.00
65897;BME280;52677;50.898;10.854;2023-06-10T02:00:09;98499.19;;;12.52;100.00
65897;BME280;52677;50.898;10.854;2023-06-10T02:02:10;98499.19;;;12.52;100.00
65897;BME280;52677;50.898;10.854;2023-06-10T02:04:11;98511.50;;;12.51;100.00
65897;BME280;52677;50.898;10.854;2023-06-10T02:06:11;98508.69;;;12.48;100.00
65897;BME280;52677;50.898;10.854;2023-06-10T02:08:11;98505.94;;;12.51;100.00
65897;BME280;52677;50.898;10.854;2023-06-10T02:10:12;98501.94;;;12.49;100.00
65897;BME280;52677;50.898;10.854;2023-06-10T02:12:12;98504.72;;;12.42;100.00
65897;BME280;52677;50.898;10.854;2023-06-10T02:14:12;98507.44;;;12.38;100.00
65897;BME280;52677;50.898;10.854;2023-06-10T02:16:13;98505.84;;;12.33;100.00
65897;BME280;52677;50.898;10.854;2023-06-10T02:18:14;98506.22;;;12.25;100.00
65897;BME280;52677;50.898;10.854;2023-06-10T02:20:14;98498.22;;;12.16;100.00
65897;BME280;52677;50.898;10.854;2023-06-10T02:22:14;98499.00;;;12.09;100.00
65897;BME280;52677;50.898;10.854;2023-06-10T02:24:15;98504.84;;;11.97;100.00
65897;BME280;52677;50.898;10.854;2023-06-10T02:26:15;98504.44;;;11.92;100.00
65897;BME280;52677;50.898;10.854;2023-06-10T02:28:15;98502.81;;;11.87;100.00
65897;BME280;52677;50.898;10.854;2023-06-10T02:30:16;98494.06;;;11.81;100.00
65897;BME280;52677;50.898;10.854;2023-06-10T02:32:16;98491.63;;;11.76;100.00
65897;BME280;52677;50.898;10.854;2023-06-10T02:34:17;98495.94;;;11.74;100.00
65897;BME280;52677;50.898;10.854;2023-06-10T02:36:17;98495.53;;;11.68;100.00
65897;BME280;52677;50.898;10.854;2023-06-10T02:38:17;98501.06;;;11.68;100.00
65897;BME280;52677;50.898;10.854;2023-06-10T02:40:18;98499.84;;;11.66;100.00
65897;BME280;52677;50.898;10.854;2023-06-10T02:42:18;98507.75;;;11.60;100.00
65897;BME280;52677;50.898;10.854;2023-06-10T02:44:19;98505.34;;;11.59;100.00
65897;BME280;52677;50.898;10.854;2023-06-10T02:46:20;98504.84;;;11.49;100.00
65897;BME280;52677;50.898;10.854;2023-06-10T02:48:23;98499.28;;;11.42;100.00
65897;BME280;52677;50.898;10.854;2023-06-10T02:50:23;98499.66;;;11.41;100.00
65897;BME280;52677;50.898;10.854;2023-06-10T02:52:23;98496.06;;;11.37;100.00
65897;BME280;52677;50.898;10.854;2023-06-10T02:54:24;98500.03;;;11.36;100.00
65897;BME280;52677;50.898;10.854;2023-06-10T02:56:24;98503.22;;;11.41;100.00
65897;BME280;52677;50.898;10.854;2023-06-10T02:58:25;98498.47;;;11.42;100.00
65897;BME280;52677;50.898;10.854;2023-06-10T03:00:26;98490.53;;;11.40;100.00
65897;BME280;52677;50.898;10.854;2023-06-10T03:02:27;98488.56;;;11.37;100.00
65897;BME280;52677;50.898;10.854;2023-06-10T03:04:28;98494.88;;;11.38;100.00
65897;BME280;52677;50.898;10.854;2023-06-10T03:06:31;98498.06;;;11.40;100.00
65897;BME280;52677;50.898;10.854;2023-06-10T03:08:33;98498.84;;;11.37;100.00
65897;BME280;52677;50.898;10.854;2023-06-10T03:10:33;98499.63;;;11.34;100.00
65897;BME280;52677;50.898;10.854;2023-06-10T03:12:34;98505.16;;;11.34;100.00
65897;BME280;52677;50.898;10.854;2023-06-10T03:14:34;98509.47;;;11.31;100.00
65897;BME280;52677;50.898;10.854;2023-06-10T03:16:34;98507.00;;;11.22;100.00
65897;BME280;52677;50.898;10.854;2023-06-10T03:18:35;98517.63;;;11.17;100.00
65897;BME280;52677;50.898;10.854;2023-06-10T03:20:35;98515.25;;;11.15;100.00
65897;BME280;52677;50.898;10.854;2023-06-10T03:22:37;98510.88;;;11.11;100.00
65897;BME280;52677;50.898;10.854;2023-06-10T03:24:38;98514.81;;;11.10;100.00
65897;BME280;52677;50.898;10.854;2023-06-10T03:26:40;98516.41;;;11.11;100.00
65897;BME280;52677;50.898;10.854;2023-06-10T03:28:40;98513.59;;;11.07;100.00
65897;BME280;52677;50.898;10.854;2023-06-10T03:30:41;98505.66;;;11.06;100.00
65897;BME280;52677;50.898;10.854;2023-06-10T03:32:41;98506.81;;;11.01;100.00
65897;BME280;52677;50.898;10.854;2023-06-10T03:34:41;98513.19;;;11.05;100.00
65897;BME280;52677;50.898;10.854;2023-06-10T03:36:42;98518.78;;;11.12;100.00
65897;BME280;52677;50.898;10.854;2023-06-10T03:38:42;98515.97;;;11.09;100.00
65897;BME280;52677;50.898;10.854;2023-06-10T03:40:43;98508.81;;;11.04;100.00
65897;BME280;52677;50.898;10.854;2023-06-10T03:42:43;98517.50;;;11.03;100.00
65897;BME280;52677;50.898;10.854;2023-06-10T03:44:46;98513.94;;;11.02;100.00
65897;BME280;52677;50.898;10.854;2023-06-10T03:46:46;98516.28;;;11.00;100.00
65897;BME280;52677;50.898;10.854;2023-06-10T03:48:47;98518.31;;;11.03;100.00
65897;BME280;52677;50.898;10.854;2023-06-10T03:50:48;98512.75;;;11.03;100.00
65897;BME280;52677;50.898;10.854;2023-06-10T03:52:50;98523.06;;;11.06;100.00
65897;BME280;52677;50.898;10.854;2023-06-10T03:54:51;98516.81;;;11.13;100.00
65897;BME280;52677;50.898;10.854;2023-06-10T03:56:51;98520.06;;;11.22;100.00
65897;BME280;52677;50.898;10.854;2023-06-10T03:58:51;98523.63;;;11.22;100.00
65897;BME280;52677;50.898;10.854;2023-06-10T04:00:52;98520.13;;;11.25;100.00
65897;BME280;52677;50.898;10.854;2023-06-10T04:02:52;98533.19;;;11.29;100.00
65897;BME280;52677;50.898;10.854;2023-06-10T04:04:53;98522.50;;;11.31;100.00
65897;BME280;52677;50.898;10.854;2023-06-10T04:06:53;98522.13;;;11.32;100.00
65897;BME280;52677;50.898;10.854;2023-06-10T04:08:53;98533.66;;;11.38;100.00
65897;BME280;52677;50.898;10.854;2023-06-10T04:10:54;98526.16;;;11.42;100.00
65897;BME280;52677;50.898;10.854;2023-06-10T04:12:55;98527.81;;;11.50;100.00
65897;BME280;52677;50.898;10.854;2023-06-10T04:14:55;98530.59;;;11.50;100.00
65897;BME280;52677;50.898;10.854;2023-06-10T04:16:55;98527.06;;;11.53;100.00
65897;BME280;52677;50.898;10.854;2023-06-10T04:18:55;98533.06;;;11.59;100.00
65897;BME280;52677;50.898;10.854;2023-06-10T04:20:56;98532.69;;;11.64;100.00
65897;BME280;52677;50.898;10.854;2023-06-10T04:22:56;98534.72;;;11.70;100.00
65897;BME280;52677;50.898;10.854;2023-06-10T04:24:57;98534.38;;;11.75;100.00
65897;BME280;52677;50.898;10.854;2023-06-10T04:26:57;98538.41;;;11.81;100.00
65897;BME280;52677;50.898;10.854;2023-06-10T04:28:58;98529.75;;;11.90;100.00
65897;BME280;52677;50.898;10.854;2023-06-10T04:30:58;98532.22;;;12.02;100.00
65897;BME280;52677;50.898;10.854;2023-06-10T04:32:59;98533.06;;;12.14;100.00
65897;BME280;52677;50.898;10.854;2023-06-10T04:34:59;98532.78;;;12.26;100.00
65897;BME280;52677;50.898;10.854;2023-06-10T04:37:00;98538.38;;;12.36;100.00
65897;BME280;52677;50.898;10.854;2023-06-10T04:39:00;98537.66;;;12.50;100.00
65897;BME280;52677;50.898;10.854;2023-06-10T04:41:01;98532.53;;;12.59;100.00
65897;BME280;52677;50.898;10.854;2023-06-10T04:43:02;98521.47;;;12.70;100.00
65897;BME280;52677;50.898;10.854;2023-06-10T04:45:02;98528.28;;;12.83;100.00
65897;BME280;52677;50.898;10.854;2023-06-10T04:47:04;98529.47;;;12.97;100.00
65897;BME280;52677;50.898;10.854;2023-06-10T04:49:04;98535.88;;;13.08;100.00
65897;BME280;52677;50.898;10.854;2023-06-10T04:51:05;98542.25;;;13.23;100.00
65897;BME280;52677;50.898;10.854;2023-06-10T04:53:05;98543.50;;;13.36;100.00
65897;BME280;52677;50.898;10.854;2023-06-10T04:55:09;98541.50;;;13.47;100.00
65897;BME280;52677;50.898;10.854;2023-06-10T04:57:10;98546.69;;;13.59;100.00
65897;BME280;52677;50.898;10.854;2023-06-10T04:59:11;98542.31;;;13.69;100.00
65897;BME280;52677;50.898;10.854;2023-06-10T05:01:12;98539.16;;;13.74;100.00
65897;BME280;52677;50.898;10.854;2023-06-10T05:03:12;98542.31;;;13.83;100.00
65897;BME280;52677;50.898;10.854;2023-06-10T05:05:12;98549.47;;;13.91;100.00
65897;BME280;52677;50.898;10.854;2023-06-10T05:07:13;98549.47;;;13.98;100.00
65897;BME280;52677;50.898;10.854;2023-06-10T05:09:13;98554.63;;;14.07;100.00
65897;BME280;52677;50.898;10.854;2023-06-10T05:11:13;98549.81;;;14.15;100.00
65897;BME280;52677;50.898;10.854;2023-06-10T05:13:14;98556.16;;;14.22;100.00
65897;BME280;52677;50.898;10.854;2023-06-10T05:15:14;98562.91;;;14.28;100.00
65897;BME280;52677;50.898;10.854;2023-06-10T05:17:14;98558.53;;;14.38;100.00
65897;BME280;52677;50.898;10.854;2023-06-10T05:19:15;98562.91;;;14.46;100.00
65897;BME280;52677;50.898;10.854;2023-06-10T05:21:16;98557.34;;;14.50;100.00
65897;BME280;52677;50.898;10.854;2023-06-10T05:23:16;98566.81;;;14.63;100.00
65897;BME280;52677;50.898;10.854;2023-06-10T05:25:17;98568.00;;;14.69;100.00
65897;BME280;52677;50.898;10.854;2023-06-10T05:27:17;98571.97;;;14.75;100.00
65897;BME280;52677;50.898;10.854;2023-06-10T05:29:18;98568.75;;;14.84;100.00
65897;BME280;52677;50.898;10.854;2023-06-10T05:31:18;98572.72;;;14.90;100.00
65897;BME280;52677;50.898;10.854;2023-06-10T05:33:18;98573.88;;;14.96;100.00
65897;BME280;52677;50.898;10.854;2023-06-10T05:35:19;98575.03;;;15.02;100.00
65897;BME280;52677;50.898;10.854;2023-06-10T05:37:19;98567.44;;;15.10;100.00
65897;BME280;52677;50.898;10.854;2023-06-10T05:39:20;98574.56;;;15.18;100.00
65897;BME280;52677;50.898;10.854;2023-06-10T05:41:20;98565.38;;;15.25;100.00
65897;BME280;52677;50.898;10.854;2023-06-10T05:43:22;98570.50;;;15.33;100.00
65897;BME280;52677;50.898;10.854;2023-06-10T05:45:22;98566.88;;;15.40;100.00
65897;BME280;52677;50.898;10.854;2023-06-10T05:47:23;98574.81;;;15.41;100.00
65897;BME280;52677;50.898;10.854;2023-06-10T05:49:23;98566.00;;;15.46;100.00
65897;BME280;52677;50.898;10.854;2023-06-10T05:51:24;98560.81;;;15.52;100.00
65897;BME280;52677;50.898;10.854;2023-06-10T05:53:25;98573.50;;;15.60;100.00
65897;BME280;52677;50.898;10.854;2023-06-10T05:55:25;98571.84;;;15.70;100.00
65897;BME280;52677;50.898;10.854;2023-06-10T05:57:26;98566.25;;;15.73;100.00
65897;BME280;52677;50.898;10.854;2023-06-10T05:59:26;98565.06;;;15.75;100.00
65897;BME280;52677;50.898;10.854;2023-06-10T06:01:26;98561.44;;;15.81;100.00
65897;BME280;52677;50.898;10.854;2023-06-10T06:03:27;98563.75;;;15.90;100.00
65897;BME280;52677;50.898;10.854;2023-06-10T06:05:28;98566.44;;;15.97;100.00
65897;BME280;52677;50.898;10.854;2023-06-10T06:07:34;98570.75;;;16.09;100.00
65897;BME280;52677;50.898;10.854;2023-06-10T06:09:35;98569.50;;;16.13;100.00
65897;BME280;52677;50.898;10.854;2023-06-10T06:11:35;98570.63;;;16.23;100.00
65897;BME280;52677;50.898;10.854;2023-06-10T06:13:35;98572.13;;;16.31;100.00
65897;BME280;52677;50.898;10.854;2023-06-10T06:15:36;98572.50;;;16.33;100.00
65897;BME280;52677;50.898;10.854;2023-06-10T06:17:36;98578.88;;;16.34;100.00
65897;BME280;52677;50.898;10.854;2023-06-10T06:19:37;98568.06;;;16.39;100.00
65897;BME280;52677;50.898;10.854;2023-06-10T06:21:37;98576.41;;;16.43;100.00
65897;BME280;52677;50.898;10.854;2023-06-10T06:23:38;98569.16;;;16.49;100.00
65897;BME280;52677;50.898;10.854;2023-06-10T06:25:38;98569.16;;;16.49;100.00
65897;BME280;52677;50.898;10.854;2023-06-10T06:27:39;98574.25;;;16.57;100.00
65897;BME280;52677;50.898;10.854;2023-06-10T06:29:39;98576.53;;;16.66;100.00
65897;BME280;52677;50.898;10.854;2023-06-10T06:31:39;98570.50;;;16.71;100.00
65897;BME280;52677;50.898;10.854;2023-06-10T06:33:40;98577.66;;;16.76;100.00
65897;BME280;52677;50.898;10.854;2023-06-10T06:35:40;98574.81;;;16.79;100.00
65897;BME280;52677;50.898;10.854;2023-06-10T06:37:40;98576.03;;;16.78;100.00
65897;BME280;52677;50.898;10.854;2023-06-10T06:39:41;98579.53;;;16.86;100.00
65897;BME280;52677;50.898;10.854;2023-06-10T06:41:41;98574.63;;;16.94;100.00
65897;BME280;52677;50.898;10.854;2023-06-10T06:43:41;98569.91;;;16.91;100.00
65897;BME280;52677;50.898;10.854;2023-06-10T06:45:43;98578.19;;;16.98;100.00
65897;BME280;52677;50.898;10.854;2023-06-10T06:47:43;98579.78;;;16.99;100.00
65897;BME280;52677;50.898;10.854;2023-06-10T06:49:43;98579.78;;;16.99;100.00
65897;BME280;52677;50.898;10.854;2023-06-10T06:51:44;98593.66;;;17.06;100.00
65897;BME280;52677;50.898;10.854;2023-06-10T06:53:44;98583.59;;;17.12;100.00
65897;BME280;52677;50.898;10.854;2023-06-10T06:55:45;98585.94;;;17.17;100.00
65897;BME280;52677;50.898;10.854;2023-06-10T06:57:46;98586.19;;;17.26;100.00
65897;BME280;52677;50.898;10.854;2023-06-10T06:59:46;98582.88;;;17.35;100.00
65897;BME280;52677;50.898;10.854;2023-06-10T07:01:46;98586.38;;;17.42;100.00
65897;BME280;52677;50.898;10.854;2023-06-10T07:03:47;98587.94;;;17.44;100.00
65897;BME280;52677;50.898;10.854;2023-06-10T07:05:47;98596.25;;;17.51;100.00
65897;BME280;52677;50.898;10.854;2023-06-10T07:07:47;98598.94;;;17.58;100.00
65897;BME280;52677;50.898;10.854;2023-06-10T07:09:48;98594.94;;;17.59;100.00
65897;BME280;52677;50.898;10.854;2023-06-10T07:11:48;98591.25;;;17.65;100.00
65897;BME280;52677;50.898;10.854;2023-06-10T07:13:48;98587.94;;;17.74;100.00
65897;BME280;52677;50.898;10.854;2023-06-10T07:15:49;98592.22;;;17.82;100.00
65897;BME280;52677;50.898;10.854;2023-06-10T07:17:49;98592.56;;;17.84;100.00
65897;BME280;52677;50.898;10.854;2023-06-10T07:19:50;98590.03;;;17.93;100.00
65897;BME280;52677;50.898;10.854;2023-06-10T07:21:51;98593.06;;;18.03;100.00
65897;BME280;52677;50.898;10.854;2023-06-10T07:23:51;98589.78;;;18.08;100.00
65897;BME280;52677;50.898;10.854;2023-06-10T07:25:53;98590.22;;;18.06;100.00
65897;BME280;52677;50.898;10.854;2023-06-10T07:27:54;98601.41;;;18.06;100.00
65897;BME280;52677;50.898;10.854;2023-06-10T07:29:54;98585.78;;;18.09;100.00
65897;BME280;52677;50.898;10.854;2023-06-10T07:31:54;98586.09;;;18.14;100.00
65897;BME280;52677;50.898;10.854;2023-06-10T07:33:55;98587.34;;;18.10;100.00
65897;BME280;52677;50.898;10.854;2023-06-10T07:35:55;98582.84;;;18.16;100.00
65897;BME280;52677;50.898;10.854;2023-06-10T07:37:55;98582.06;;;18.15;100.00
65897;BME280;52677;50.898;10.854;2023-06-10T07:39:56;98586.63;;;18.29;100.00
65897;BME280;52677;50.898;10.854;2023-06-10T07:41:56;98592.47;;;18.38;100.00
65897;BME280;52677;50.898;10.854;2023-06-10T07:43:57;98586.88;;;18.38;100.00
65897;BME280;52677;50.898;10.854;2023-06-10T07:45:57;98584.72;;;18.46;100.00
65897;BME280;52677;50.898;10.854;2023-06-10T07:47:58;98586.59;;;18.52;100.00
65897;BME280;52677;50.898;10.854;2023-06-10T07:49:58;98586.44;;;18.60;100.00
65897;BME280;52677;50.898;10.854;2023-06-10T07:51:58;98588.22;;;18.73;100.00
65897;BME280;52677;50.898;10.854;2023-06-10T07:53:59;98593.25;;;18.82;100.00
65897;BME280;52677;50.898;10.854;2023-06-10T07:55:59;98582.75;;;18.86;99.93
65897;BME280;52677;50.898;10.854;2023-06-10T07:57:59;98587.44;;;18.93;100.00
65897;BME280;52677;50.898;10.854;2023-06-10T08:00:00;98584.28;;;18.91;99.20
65897;BME280;52677;50.898;10.854;2023-06-10T08:02:02;98590.53;;;18.98;99.92
65897;BME280;52677;50.898;10.854;2023-06-10T08:04:03;98579.66;;;19.00;98.97
65897;BME280;52677;50.898;10.854;2023-06-10T08:06:04;98575.38;;;18.96;99.21
65897;BME280;52677;50.898;10.854;2023-06-10T08:08:05;98580.03;;;19.02;100.00
65897;BME280;52677;50.898;10.854;2023-06-10T08:10:06;98570.63;;;19.13;99.67
65897;BME280;52677;50.898;10.854;2023-06-10T08:12:07;98568.16;;;19.15;99.32
65897;BME280;52677;50.898;10.854;2023-06-10T08:14:07;98575.44;;;19.12;99.79
65897;BME280;52677;50.898;10.854;2023-06-10T08:16:08;98573.81;;;19.11;100.00
65897;BME280;52677;50.898;10.854;2023-06-10T08:18:08;98578.06;;;19.19;100.00
65897;BME280;52677;50.898;10.854;2023-06-10T08:20:09;98581.50;;;19.27;100.00
65897;BME280;52677;50.898;10.854;2023-06-10T08:22:09;98575.59;;;19.41;98.76
65897;BME280;52677;50.898;10.854;2023-06-10T08:24:10;98565.69;;;19.36;99.02
65897;BME280;52677;50.898;10.854;2023-06-10T08:26:10;98577.09;;;19.46;98.20
65897;BME280;52677;50.898;10.854;2023-06-10T08:28:11;98575.72;;;19.54;98.10
65897;BME280;52677;50.898;10.854;2023-06-10T08:30:11;98574.41;;;19.58;100.00
65897;BME280;52677;50.898;10.854;2023-06-10T08:32:13;98580.38;;;19.60;99.13
65897;BME280;52677;50.898;10.854;2023-06-10T08:34:13;98578.47;;;19.74;100.00
65897;BME280;52677;50.898;10.854;2023-06-10T08:36:14;98581.47;;;19.83;97.96
65897;BME280;52677;50.898;10.854;2023-06-10T08:38:14;98586.13;;;19.89;97.14
65897;BME280;52677;50.898;10.854;2023-06-10T08:40:16;98573.66;;;19.90;97.73
65897;BME280;52677;50.898;10.854;2023-06-10T08:42:23;98584.53;;;19.88;96.40
65897;BME280;52677;50.898;10.854;2023-06-10T08:44:29;98575.16;;;19.95;97.95
65897;BME280;52677;50.898;10.854;2023-06-10T08:46:31;98571.28;;;20.05;96.84
65897;BME280;52677;50.898;10.854;2023-06-10T08:48:34;98578.22;;;20.17;98.77
65897;BME280;52677;50.898;10.854;2023-06-10T08:50:36;98572.41;;;20.24;95.18
65897;BME280;52677;50.898;10.854;2023-06-10T08:52:37;98582.16;;;20.36;95.00
65897;BME280;52677;50.898;10.854;2023-06-10T08:54:43;98572.69;;;20.46;95.46
65897;BME280;52677;50.898;10.854;2023-06-10T08:56:48;98581.25;;;20.55;93.46
65897;BME280;52677;50.898;10.854;2023-06-10T08:58:49;98581.84;;;20.63;94.72
65897;BME280;52677;50.898;10.854;2023-06-10T09:00:49;98581.94;;;20.59;93.48
65897;BME280;52677;50.898;10.854;2023-06-10T09:02:50;98582.97;;;20.65;93.87
65897;BME280;52677;50.898;10.854;2023-06-10T09:04:51;98586.44;;;20.86;94.55
65897;BME280;52677;50.898;10.854;2023-06-10T09:06:52;98571.59;;;20.85;92.93
65897;BME280;52677;50.898;10.854;2023-06-10T09:08:53;98572.31;;;21.02;94.33
65897;BME280;52677;50.898;10.854;2023-06-10T09:10:54;98582.13;;;21.10;91.30
65897;BME280;52677;50.898;10.854;2023-06-10T09:12:55;98586.16;;;21.09;91.81
65897;BME280;52677;50.898;10.854;2023-06-10T09:14:55;98585.94;;;21.16;91.50
65897;BME280;52677;50.898;10.854;2023-06-10T09:16:56;98579.66;;;21.12;92.43
65897;BME280;52677;50.898;10.854;2023-06-10T09:18:57;98578.88;;;21.12;91.46
65897;BME280;52677;50.898;10.854;2023-06-10T09:20:59;98574.81;;;21.25;90.69
65897;BME280;52677;50.898;10.854;2023-06-10T09:23:00;98571.56;;;21.14;90.44
65897;BME280;52677;50.898;10.854;2023-06-10T09:25:09;98579.81;;;21.34;90.48
65897;BME280;52677;50.898;10.854;2023-06-10T09:27:10;98573.84;;;21.32;88.63
65897;BME280;52677;50.898;10.854;2023-06-10T09:29:11;98575.56;;;21.29;88.59
65897;BME280;52677;50.898;10.854;2023-06-10T09:31:12;98569.25;;;21.38;88.93
65897;BME280;52677;50.898;10.854;2023-06-10T09:33:14;98555.84;;;21.42;88.14
65897;BME280;52677;50.898;10.854;2023-06-10T09:35:17;98557.44;;;21.43;89.16
65897;BME280;52677;50.898;10.854;2023-06-10T09:37:22;98564.41;;;21.51;89.53
65897;BME280;52677;50.898;10.854;2023-06-10T09:39:22;98558.25;;;21.69;88.84
65897;BME280;52677;50.898;10.854;2023-06-10T09:41:32;98562.72;;;21.79;87.67
65897;BME280;52677;50.898;10.854;2023-06-10T09:43:44;98568.56;;;21.98;88.10
65897;BME280;52677;50.898;10.854;2023-06-10T09:45:48;98554.81;;;22.00;85.24
65897;BME280;52677;50.898;10.854;2023-06-10T09:47:52;98555.16;;;22.14;87.82
65897;BME280;52677;50.898;10.854;2023-06-10T09:49:53;98542.72;;;22.25;86.64
65897;BME280;52677;50.898;10.854;2023-06-10T09:51:54;98550.38;;;22.37;84.90
65897;BME280;52677;50.898;10.854;2023-06-10T09:53:55;98561.59;;;22.50;86.18
65897;BME280;52677;50.898;10.854;2023-06-10T09:55:55;98559.44;;;22.54;86.74
65897;BME280;52677;50.898;10.854;2023-06-10T09:57:55;98556.69;;;22.63;84.86
65897;BME280;52677;50.898;10.854;2023-06-10T09:59:56;98555.03;;;22.75;84.65
65897;BME280;52677;50.898;10.854;2023-06-10T10:01:56;98549.81;;;22.64;83.24
65897;BME280;52677;50.898;10.854;2023-06-10T10:03:57;98554.00;;;22.59;82.33
65897;BME280;52677;50.898;10.854;2023-06-10T10:05:59;98546.06;;;22.67;84.46
65897;BME280;52677;50.898;10.854;2023-06-10T10:08:00;98551.09;;;22.85;84.43
65897;BME280;52677;50.898;10.854;2023-06-10T10:10:00;98548.81;;;22.92;85.53
65897;BME280;52677;50.898;10.854;2023-06-10T10:12:02;98535.66;;;22.77;81.89
65897;BME280;52677;50.898;10.854;2023-06-10T10:14:03;98540.50;;;22.76;84.96
65897;BME280;52677;50.898;10.854;2023-06-10T10:16:10;98530.00;;;22.77;83.41
65897;BME280;52677;50.898;10.854;2023-06-10T10:18:14;98537.69;;;22.76;83.33
65897;BME280;52677;50.898;10.854;2023-06-10T10:20:20;98539.44;;;22.83;84.79
65897;BME280;52677;50.898;10.854;2023-06-10T10:22:26;98539.25;;;22.99;85.24
65897;BME280;52677;50.898;10.854;2023-06-10T10:24:34;98532.09;;;23.07;81.56
65897;BME280;52677;50.898;10.854;2023-06-10T10:26:38;98533.59;;;23.21;82.84
65897;BME280;52677;50.898;10.854;2023-06-10T10:28:42;98534.91;;;23.29;81.92
65897;BME280;52677;50.898;10.854;2023-06-10T10:30:49;98537.75;;;23.38;80.62
65897;BME280;52677;50.898;10.854;2023-06-10T10:33:04;98530.78;;;23.52;81.69